الصفحة الرئيسية
METAR-TAF:

METAR-TAF

مطار :

Foz do Iguaçu, بارانا, البرازيل

دائرة عرض: 25-31S, خط طول: 054-35W, ارتفاع: 180 متر

مراقبة الطقس الحالي

تاريخ ووقت الإصدار 32 دقيقة قبل الساعة 17:00UTC
ريح 3 عقدة من الجنوب الغربي
درجة الحرارة 29°درجة مئوية
الرطوبة 66%
ضغط 1007 hPa
الرؤية 10 كم أو أكثر
غيوم مفككة على ارتفاع 3500 قدم

METAR: SBFI 211700Z 23003KT 9999 BKN035 29/22 Q1007

زمن: 14:32 (17:32 UTC)

توقعات

تاريخ ووقت الإصدار 2ساعات و 32 دقيقة قبل الساعة 15:00UTC
التوقعات صالحة من21 الساعة 18 UTC إلى 22 الساعة 18 UTC
ريح 6 عقدة من الشرق
الرؤية 10 كم أو أكثر
الغيوم لا تقل 1500 م ولا وجود لمزنة ركامية السحاب الأسود

TAF: SBFI 211500Z 2118/2218 08006KT CAVOK TN22/2208Z TX32/2217Z RMK PEW

أرصاد الطقس والتوقعات من أكثر من 4000 مطار (تقارير الطقس للمطار METAR والتنبؤ بالطقس بالمطارTAF).

المحطات المتاحة هي النقط الصفراء والحمراء على الخريطة.

حرك المؤشر فوق النقطة لمعرفة اسم المحطة.

ثم انقر لمعرفة أرصاد وتوقعات الطقس.

لتغيير الخارطة: اضغط على الأزرار الخضراء مع رمز الصليب الأسود للتكبير. على الزر الأخضر مع شرطة للتصغير، أو على الأسهم الخضراء للخرائط المجاورة.


METAR-TAF: